sensor_id;sensor_type;location;lat;lon;timestamp;P1;durP1;ratioP1;P2;durP2;ratioP2
20298;SDS011;10308;42.688;23.256;2023-12-20T00:01:07;45.47;;;41.15;;
20298;SDS011;10308;42.688;23.256;2023-12-20T00:03:35;42.33;;;38.35;;
20298;SDS011;10308;42.688;23.256;2023-12-20T00:06:05;41.67;;;37.72;;
20298;SDS011;10308;42.688;23.256;2023-12-20T00:08:32;41.70;;;37.88;;
20298;SDS011;10308;42.688;23.256;2023-12-20T00:10:59;45.85;;;41.40;;
20298;SDS011;10308;42.688;23.256;2023-12-20T00:13:26;49.70;;;45.05;;
20298;SDS011;10308;42.688;23.256;2023-12-20T00:15:57;49.97;;;45.35;;
20298;SDS011;10308;42.688;23.256;2023-12-20T00:18:25;48.92;;;44.33;;
20298;SDS011;10308;42.688;23.256;2023-12-20T00:20:54;47.35;;;42.75;;
20298;SDS011;10308;42.688;23.256;2023-12-20T00:23:25;47.60;;;43.10;;
20298;SDS011;10308;42.688;23.256;2023-12-20T00:25:56;42.40;;;38.42;;
20298;SDS011;10308;42.688;23.256;2023-12-20T00:28:23;37.75;;;33.97;;
20298;SDS011;10308;42.688;23.256;2023-12-20T00:30:50;38.28;;;34.50;;
20298;SDS011;10308;42.688;23.256;2023-12-20T00:33:20;41.20;;;37.30;;
20298;SDS011;10308;42.688;23.256;2023-12-20T00:35:49;41.35;;;37.47;;
20298;SDS011;10308;42.688;23.256;2023-12-20T00:38:19;40.13;;;36.38;;
20298;SDS011;10308;42.688;23.256;2023-12-20T00:40:51;41.92;;;38.08;;
20298;SDS011;10308;42.688;23.256;2023-12-20T00:43:21;41.75;;;37.85;;
20298;SDS011;10308;42.688;23.256;2023-12-20T00:45:48;40.38;;;36.63;;
20298;SDS011;10308;42.688;23.256;2023-12-20T00:48:15;38.08;;;34.45;;
20298;SDS011;10308;42.688;23.256;2023-12-20T00:50:43;38.85;;;35.10;;
20298;SDS011;10308;42.688;23.256;2023-12-20T00:53:13;38.55;;;34.95;;
20298;SDS011;10308;42.688;23.256;2023-12-20T00:55:40;36.85;;;33.50;;
20298;SDS011;10308;42.688;23.256;2023-12-20T00:58:08;40.25;;;36.50;;
20298;SDS011;10308;42.688;23.256;2023-12-20T01:00:40;40.13;;;36.53;;
20298;SDS011;10308;42.688;23.256;2023-12-20T01:03:10;46.15;;;41.97;;
20298;SDS011;10308;42.688;23.256;2023-12-20T01:05:38;43.22;;;39.22;;
20298;SDS011;10308;42.688;23.256;2023-12-20T01:08:11;39.03;;;35.22;;
20298;SDS011;10308;42.688;23.256;2023-12-20T01:10:44;40.55;;;36.70;;
20298;SDS011;10308;42.688;23.256;2023-12-20T01:13:12;43.75;;;39.78;;
20298;SDS011;10308;42.688;23.256;2023-12-20T01:15:39;35.40;;;32.28;;
20298;SDS011;10308;42.688;23.256;2023-12-20T01:18:07;32.83;;;29.70;;
20298;SDS011;10308;42.688;23.256;2023-12-20T01:20:34;33.25;;;30.25;;
20298;SDS011;10308;42.688;23.256;2023-12-20T01:23:02;34.95;;;31.80;;
20298;SDS011;10308;42.688;23.256;2023-12-20T01:25:32;36.28;;;32.88;;
20298;SDS011;10308;42.688;23.256;2023-12-20T01:28:00;36.33;;;32.95;;
20298;SDS011;10308;42.688;23.256;2023-12-20T01:30:32;37.85;;;34.53;;
20298;SDS011;10308;42.688;23.256;2023-12-20T01:32:59;37.35;;;33.75;;
20298;SDS011;10308;42.688;23.256;2023-12-20T01:35:25;36.50;;;33.10;;
20298;SDS011;10308;42.688;23.256;2023-12-20T01:37:52;36.20;;;32.88;;
20298;SDS011;10308;42.688;23.256;2023-12-20T01:40:22;36.75;;;33.28;;
20298;SDS011;10308;42.688;23.256;2023-12-20T01:42:59;38.55;;;34.85;;
20298;SDS011;10308;42.688;23.256;2023-12-20T01:45:27;35.55;;;32.22;;
20298;SDS011;10308;42.688;23.256;2023-12-20T01:47:54;34.60;;;31.23;;
20298;SDS011;10308;42.688;23.256;2023-12-20T01:50:23;36.17;;;32.88;;
20298;SDS011;10308;42.688;23.256;2023-12-20T01:52:53;35.88;;;32.67;;
20298;SDS011;10308;42.688;23.256;2023-12-20T01:55:22;30.10;;;27.30;;
20298;SDS011;10308;42.688;23.256;2023-12-20T01:57:50;30.00;;;27.20;;
20298;SDS011;10308;42.688;23.256;2023-12-20T02:00:19;29.50;;;26.65;;
20298;SDS011;10308;42.688;23.256;2023-12-20T02:02:48;31.52;;;28.73;;
20298;SDS011;10308;42.688;23.256;2023-12-20T02:05:21;33.33;;;30.13;;
20298;SDS011;10308;42.688;23.256;2023-12-20T02:07:54;32.00;;;29.08;;
20298;SDS011;10308;42.688;23.256;2023-12-20T02:10:23;30.77;;;27.95;;
20298;SDS011;10308;42.688;23.256;2023-12-20T02:12:51;31.45;;;28.60;;
20298;SDS011;10308;42.688;23.256;2023-12-20T02:15:20;32.33;;;29.25;;
20298;SDS011;10308;42.688;23.256;2023-12-20T02:17:49;31.02;;;28.13;;
20298;SDS011;10308;42.688;23.256;2023-12-20T02:20:17;30.70;;;27.90;;
20298;SDS011;10308;42.688;23.256;2023-12-20T02:22:49;33.17;;;30.20;;
20298;SDS011;10308;42.688;23.256;2023-12-20T02:25:16;32.17;;;29.27;;
20298;SDS011;10308;42.688;23.256;2023-12-20T02:27:53;30.23;;;27.52;;
20298;SDS011;10308;42.688;23.256;2023-12-20T02:30:21;30.17;;;27.45;;
20298;SDS011;10308;42.688;23.256;2023-12-20T02:32:49;32.00;;;28.88;;
20298;SDS011;10308;42.688;23.256;2023-12-20T02:35:17;32.72;;;29.65;;
20298;SDS011;10308;42.688;23.256;2023-12-20T02:37:44;31.88;;;28.95;;
20298;SDS011;10308;42.688;23.256;2023-12-20T02:40:13;32.08;;;29.08;;
20298;SDS011;10308;42.688;23.256;2023-12-20T02:42:41;30.98;;;28.17;;
20298;SDS011;10308;42.688;23.256;2023-12-20T02:45:09;30.85;;;27.92;;
20298;SDS011;10308;42.688;23.256;2023-12-20T02:47:40;30.55;;;27.75;;
20298;SDS011;10308;42.688;23.256;2023-12-20T02:50:09;30.13;;;27.42;;
20298;SDS011;10308;42.688;23.256;2023-12-20T02:52:40;29.08;;;26.48;;
20298;SDS011;10308;42.688;23.256;2023-12-20T02:55:10;30.15;;;27.23;;
20298;SDS011;10308;42.688;23.256;2023-12-20T02:57:41;30.90;;;28.00;;
20298;SDS011;10308;42.688;23.256;2023-12-20T03:00:08;31.70;;;28.80;;
20298;SDS011;10308;42.688;23.256;2023-12-20T03:02:47;31.67;;;28.77;;
20298;SDS011;10308;42.688;23.256;2023-12-20T03:05:15;31.88;;;28.98;;
20298;SDS011;10308;42.688;23.256;2023-12-20T03:07:47;31.13;;;28.30;;
20298;SDS011;10308;42.688;23.256;2023-12-20T03:10:15;32.15;;;29.17;;
20298;SDS011;10308;42.688;23.256;2023-12-20T03:12:52;33.25;;;30.08;;
20298;SDS011;10308;42.688;23.256;2023-12-20T03:15:20;30.95;;;28.10;;
20298;SDS011;10308;42.688;23.256;2023-12-20T03:17:50;32.40;;;29.30;;
20298;SDS011;10308;42.688;23.256;2023-12-20T03:20:17;32.10;;;29.08;;
20298;SDS011;10308;42.688;23.256;2023-12-20T03:22:52;32.92;;;29.85;;
20298;SDS011;10308;42.688;23.256;2023-12-20T03:25:20;32.45;;;29.45;;
20298;SDS011;10308;42.688;23.256;2023-12-20T03:27:49;31.98;;;29.08;;
20298;SDS011;10308;42.688;23.256;2023-12-20T03:30:16;43.30;;;39.40;;
20298;SDS011;10308;42.688;23.256;2023-12-20T03:32:44;35.00;;;31.85;;
20298;SDS011;10308;42.688;23.256;2023-12-20T03:35:11;35.47;;;32.03;;
20298;SDS011;10308;42.688;23.256;2023-12-20T03:37:38;35.13;;;31.83;;
20298;SDS011;10308;42.688;23.256;2023-12-20T03:40:08;46.83;;;41.70;;
20298;SDS011;10308;42.688;23.256;2023-12-20T03:42:39;57.97;;;46.83;;
20298;SDS011;10308;42.688;23.256;2023-12-20T03:45:08;67.30;;;51.80;;
20298;SDS011;10308;42.688;23.256;2023-12-20T03:47:41;51.75;;;44.83;;
20298;SDS011;10308;42.688;23.256;2023-12-20T03:50:09;50.63;;;43.25;;
20298;SDS011;10308;42.688;23.256;2023-12-20T03:52:37;43.45;;;39.00;;
20298;SDS011;10308;42.688;23.256;2023-12-20T03:55:04;42.15;;;38.08;;
20298;SDS011;10308;42.688;23.256;2023-12-20T03:57:37;42.72;;;38.47;;
20298;SDS011;10308;42.688;23.256;2023-12-20T04:00:05;42.70;;;38.08;;
20298;SDS011;10308;42.688;23.256;2023-12-20T04:02:40;42.58;;;37.88;;
20298;SDS011;10308;42.688;23.256;2023-12-20T04:05:08;42.03;;;37.83;;
20298;SDS011;10308;42.688;23.256;2023-12-20T04:07:36;41.85;;;37.53;;
20298;SDS011;10308;42.688;23.256;2023-12-20T04:10:06;42.10;;;37.78;;
20298;SDS011;10308;42.688;23.256;2023-12-20T04:12:36;40.47;;;36.40;;
20298;SDS011;10308;42.688;23.256;2023-12-20T04:15:04;39.70;;;35.67;;
20298;SDS011;10308;42.688;23.256;2023-12-20T04:17:36;37.30;;;33.63;;
20298;SDS011;10308;42.688;23.256;2023-12-20T04:20:05;38.72;;;34.90;;
20298;SDS011;10308;42.688;23.256;2023-12-20T04:22:38;38.08;;;34.40;;
20298;SDS011;10308;42.688;23.256;2023-12-20T04:25:08;37.03;;;33.42;;
20298;SDS011;10308;42.688;23.256;2023-12-20T04:27:35;37.35;;;33.92;;
20298;SDS011;10308;42.688;23.256;2023-12-20T04:30:02;37.05;;;33.58;;
20298;SDS011;10308;42.688;23.256;2023-12-20T04:32:29;36.67;;;33.05;;
20298;SDS011;10308;42.688;23.256;2023-12-20T04:35:01;36.78;;;33.22;;
20298;SDS011;10308;42.688;23.256;2023-12-20T04:37:29;41.58;;;37.67;;
20298;SDS011;10308;42.688;23.256;2023-12-20T04:39:56;46.42;;;41.88;;
20298;SDS011;10308;42.688;23.256;2023-12-20T04:42:23;49.72;;;44.85;;
20298;SDS011;10308;42.688;23.256;2023-12-20T04:44:51;52.22;;;47.10;;
20298;SDS011;10308;42.688;23.256;2023-12-20T04:47:19;47.22;;;42.63;;
20298;SDS011;10308;42.688;23.256;2023-12-20T04:49:47;52.72;;;47.53;;
20298;SDS011;10308;42.688;23.256;2023-12-20T04:52:20;49.95;;;45.15;;
20298;SDS011;10308;42.688;23.256;2023-12-20T04:54:47;47.80;;;43.13;;
20298;SDS011;10308;42.688;23.256;2023-12-20T04:57:15;39.45;;;35.85;;
20298;SDS011;10308;42.688;23.256;2023-12-20T04:59:42;36.78;;;33.38;;
20298;SDS011;10308;42.688;23.256;2023-12-20T05:02:09;36.25;;;32.85;;
20298;SDS011;10308;42.688;23.256;2023-12-20T05:04:36;35.58;;;32.25;;
20298;SDS011;10308;42.688;23.256;2023-12-20T05:07:04;40.20;;;36.30;;
20298;SDS011;10308;42.688;23.256;2023-12-20T05:09:33;35.85;;;32.45;;
20298;SDS011;10308;42.688;23.256;2023-12-20T05:12:00;34.70;;;31.48;;
20298;SDS011;10308;42.688;23.256;2023-12-20T05:14:28;33.42;;;30.38;;
20298;SDS011;10308;42.688;23.256;2023-12-20T05:17:00;33.17;;;30.05;;
20298;SDS011;10308;42.688;23.256;2023-12-20T05:19:28;32.40;;;29.30;;
20298;SDS011;10308;42.688;23.256;2023-12-20T05:21:56;38.45;;;35.00;;
20298;SDS011;10308;42.688;23.256;2023-12-20T05:24:23;31.60;;;28.70;;
20298;SDS011;10308;42.688;23.256;2023-12-20T05:26:52;35.58;;;32.13;;
20298;SDS011;10308;42.688;23.256;2023-12-20T05:29:20;35.85;;;32.45;;
20298;SDS011;10308;42.688;23.256;2023-12-20T05:31:47;37.40;;;33.97;;
20298;SDS011;10308;42.688;23.256;2023-12-20T05:34:14;34.40;;;31.05;;
20298;SDS011;10308;42.688;23.256;2023-12-20T05:36:45;33.25;;;29.92;;
20298;SDS011;10308;42.688;23.256;2023-12-20T05:39:16;36.15;;;32.63;;
20298;SDS011;10308;42.688;23.256;2023-12-20T05:41:44;32.47;;;29.13;;
20298;SDS011;10308;42.688;23.256;2023-12-20T05:44:14;31.13;;;28.02;;
20298;SDS011;10308;42.688;23.256;2023-12-20T05:46:42;29.08;;;26.05;;
20298;SDS011;10308;42.688;23.256;2023-12-20T05:49:09;33.22;;;30.05;;
20298;SDS011;10308;42.688;23.256;2023-12-20T05:51:37;31.65;;;28.48;;
20298;SDS011;10308;42.688;23.256;2023-12-20T05:54:04;45.80;;;41.33;;
20298;SDS011;10308;42.688;23.256;2023-12-20T05:56:31;49.70;;;44.83;;
20298;SDS011;10308;42.688;23.256;2023-12-20T05:58:58;61.03;;;54.92;;
20298;SDS011;10308;42.688;23.256;2023-12-20T06:01:28;61.88;;;55.63;;
20298;SDS011;10308;42.688;23.256;2023-12-20T06:03:55;63.80;;;57.42;;
20298;SDS011;10308;42.688;23.256;2023-12-20T06:06:26;65.18;;;58.65;;
20298;SDS011;10308;42.688;23.256;2023-12-20T06:08:57;67.10;;;60.38;;
20298;SDS011;10308;42.688;23.256;2023-12-20T06:11:25;66.25;;;59.47;;
20298;SDS011;10308;42.688;23.256;2023-12-20T06:13:53;67.57;;;60.63;;
20298;SDS011;10308;42.688;23.256;2023-12-20T06:16:20;73.35;;;63.22;;
20298;SDS011;10308;42.688;23.256;2023-12-20T06:18:50;73.15;;;64.47;;
20298;SDS011;10308;42.688;23.256;2023-12-20T06:21:18;72.03;;;61.47;;
20298;SDS011;10308;42.688;23.256;2023-12-20T06:23:47;71.97;;;57.28;;
20298;SDS011;10308;42.688;23.256;2023-12-20T06:26:15;64.60;;;50.00;;
20298;SDS011;10308;42.688;23.256;2023-12-20T06:28:44;37.50;;;30.67;;
20298;SDS011;10308;42.688;23.256;2023-12-20T06:31:12;35.15;;;28.95;;
20298;SDS011;10308;42.688;23.256;2023-12-20T06:33:42;35.38;;;29.13;;
20298;SDS011;10308;42.688;23.256;2023-12-20T06:36:15;33.85;;;29.65;;
20298;SDS011;10308;42.688;23.256;2023-12-20T06:38:45;32.13;;;28.80;;
20298;SDS011;10308;42.688;23.256;2023-12-20T06:41:12;33.10;;;29.52;;
20298;SDS011;10308;42.688;23.256;2023-12-20T06:43:40;28.20;;;25.30;;
20298;SDS011;10308;42.688;23.256;2023-12-20T06:46:07;21.48;;;19.38;;
20298;SDS011;10308;42.688;23.256;2023-12-20T06:48:35;19.88;;;17.90;;
20298;SDS011;10308;42.688;23.256;2023-12-20T06:51:02;20.25;;;18.35;;
20298;SDS011;10308;42.688;23.256;2023-12-20T06:53:30;18.60;;;16.85;;
20298;SDS011;10308;42.688;23.256;2023-12-20T06:55:59;20.50;;;18.27;;
20298;SDS011;10308;42.688;23.256;2023-12-20T06:58:28;22.48;;;18.33;;
20298;SDS011;10308;42.688;23.256;2023-12-20T07:00:55;21.73;;;19.63;;
20298;SDS011;10308;42.688;23.256;2023-12-20T07:03:22;21.25;;;19.08;;
20298;SDS011;10308;42.688;23.256;2023-12-20T07:05:49;21.30;;;19.15;;
20298;SDS011;10308;42.688;23.256;2023-12-20T07:08:17;22.67;;;20.40;;
20298;SDS011;10308;42.688;23.256;2023-12-20T07:10:46;22.40;;;20.08;;
20298;SDS011;10308;42.688;23.256;2023-12-20T07:13:14;23.13;;;20.88;;
20298;SDS011;10308;42.688;23.256;2023-12-20T07:15:41;26.10;;;23.42;;
20298;SDS011;10308;42.688;23.256;2023-12-20T07:18:08;25.58;;;23.05;;
20298;SDS011;10308;42.688;23.256;2023-12-20T07:20:42;27.20;;;24.38;;
20298;SDS011;10308;42.688;23.256;2023-12-20T07:23:09;25.35;;;22.80;;
20298;SDS011;10308;42.688;23.256;2023-12-20T07:25:39;26.83;;;24.05;;
20298;SDS011;10308;42.688;23.256;2023-12-20T07:28:14;26.73;;;24.08;;
20298;SDS011;10308;42.688;23.256;2023-12-20T07:30:41;31.80;;;28.50;;
20298;SDS011;10308;42.688;23.256;2023-12-20T07:33:11;34.13;;;30.65;;
20298;SDS011;10308;42.688;23.256;2023-12-20T07:35:42;40.05;;;35.85;;
20298;SDS011;10308;42.688;23.256;2023-12-20T07:38:10;39.17;;;35.08;;
20298;SDS011;10308;42.688;23.256;2023-12-20T07:40:40;39.80;;;35.70;;
20298;SDS011;10308;42.688;23.256;2023-12-20T07:43:07;42.00;;;37.70;;
20298;SDS011;10308;42.688;23.256;2023-12-20T07:45:38;45.50;;;40.95;;
20298;SDS011;10308;42.688;23.256;2023-12-20T07:48:06;53.55;;;48.17;;
20298;SDS011;10308;42.688;23.256;2023-12-20T07:50:34;51.03;;;45.70;;
20298;SDS011;10308;42.688;23.256;2023-12-20T07:53:03;55.05;;;49.42;;
20298;SDS011;10308;42.688;23.256;2023-12-20T07:55:33;63.67;;;55.38;;
20298;SDS011;10308;42.688;23.256;2023-12-20T07:58:00;74.47;;;63.97;;
20298;SDS011;10308;42.688;23.256;2023-12-20T08:00:30;90.35;;;76.13;;
20298;SDS011;10308;42.688;23.256;2023-12-20T08:03:01;95.63;;;83.00;;
20298;SDS011;10308;42.688;23.256;2023-12-20T08:05:33;103.15;;;85.68;;
20298;SDS011;10308;42.688;23.256;2023-12-20T08:08:00;98.20;;;83.47;;
20298;SDS011;10308;42.688;23.256;2023-12-20T08:10:27;98.60;;;87.88;;
20298;SDS011;10308;42.688;23.256;2023-12-20T08:12:55;89.93;;;78.07;;
20298;SDS011;10308;42.688;23.256;2023-12-20T08:15:22;90.80;;;80.35;;
20298;SDS011;10308;42.688;23.256;2023-12-20T08:17:50;84.72;;;72.63;;
20298;SDS011;10308;42.688;23.256;2023-12-20T08:20:23;88.55;;;76.63;;
20298;SDS011;10308;42.688;23.256;2023-12-20T08:22:52;84.85;;;72.15;;
20298;SDS011;10308;42.688;23.256;2023-12-20T08:25:22;76.40;;;66.53;;
20298;SDS011;10308;42.688;23.256;2023-12-20T08:27:49;81.72;;;70.35;;
20298;SDS011;10308;42.688;23.256;2023-12-20T08:30:16;75.10;;;65.88;;
20298;SDS011;10308;42.688;23.256;2023-12-20T08:32:47;65.40;;;58.40;;
20298;SDS011;10308;42.688;23.256;2023-12-20T08:35:14;62.10;;;55.55;;
20298;SDS011;10308;42.688;23.256;2023-12-20T08:37:44;66.07;;;59.05;;
20298;SDS011;10308;42.688;23.256;2023-12-20T08:40:12;80.00;;;71.10;;
20298;SDS011;10308;42.688;23.256;2023-12-20T08:42:40;109.15;;;97.68;;
20298;SDS011;10308;42.688;23.256;2023-12-20T08:45:11;111.32;;;99.32;;
20298;SDS011;10308;42.688;23.256;2023-12-20T08:47:42;109.55;;;96.15;;
20298;SDS011;10308;42.688;23.256;2023-12-20T08:50:13;102.10;;;91.07;;
20298;SDS011;10308;42.688;23.256;2023-12-20T08:52:41;100.97;;;90.13;;
20298;SDS011;10308;42.688;23.256;2023-12-20T08:55:13;92.10;;;82.32;;
20298;SDS011;10308;42.688;23.256;2023-12-20T08:57:41;90.22;;;80.85;;
20298;SDS011;10308;42.688;23.256;2023-12-20T09:00:08;88.75;;;79.40;;
20298;SDS011;10308;42.688;23.256;2023-12-20T09:02:36;89.55;;;80.18;;
20298;SDS011;10308;42.688;23.256;2023-12-20T09:05:04;90.65;;;81.07;;
20298;SDS011;10308;42.688;23.256;2023-12-20T09:07:31;90.38;;;80.75;;
20298;SDS011;10308;42.688;23.256;2023-12-20T09:09:58;94.38;;;84.47;;
20298;SDS011;10308;42.688;23.256;2023-12-20T09:12:26;97.45;;;87.45;;
20298;SDS011;10308;42.688;23.256;2023-12-20T09:14:54;98.13;;;88.18;;
20298;SDS011;10308;42.688;23.256;2023-12-20T09:17:21;96.80;;;86.68;;
20298;SDS011;10308;42.688;23.256;2023-12-20T09:19:48;86.80;;;77.68;;
20298;SDS011;10308;42.688;23.256;2023-12-20T09:22:17;79.40;;;71.40;;
20298;SDS011;10308;42.688;23.256;2023-12-20T09:24:44;76.35;;;68.60;;
20298;SDS011;10308;42.688;23.256;2023-12-20T09:27:11;77.43;;;69.53;;
20298;SDS011;10308;42.688;23.256;2023-12-20T09:29:42;75.30;;;67.60;;
20298;SDS011;10308;42.688;23.256;2023-12-20T09:32:10;70.03;;;62.78;;
20298;SDS011;10308;42.688;23.256;2023-12-20T09:34:37;70.95;;;63.78;;
20298;SDS011;10308;42.688;23.256;2023-12-20T09:37:07;69.70;;;62.60;;
20298;SDS011;10308;42.688;23.256;2023-12-20T09:39:35;72.72;;;65.03;;
20298;SDS011;10308;42.688;23.256;2023-12-20T09:42:03;69.07;;;61.83;;
20298;SDS011;10308;42.688;23.256;2023-12-20T09:44:33;72.00;;;64.47;;
20298;SDS011;10308;42.688;23.256;2023-12-20T09:47:09;78.68;;;70.82;;
20298;SDS011;10308;42.688;23.256;2023-12-20T09:49:38;81.32;;;72.93;;
20298;SDS011;10308;42.688;23.256;2023-12-20T09:52:05;93.05;;;83.75;;
20298;SDS011;10308;42.688;23.256;2023-12-20T09:54:33;95.57;;;86.30;;
20298;SDS011;10308;42.688;23.256;2023-12-20T09:57:02;94.25;;;84.68;;
20298;SDS011;10308;42.688;23.256;2023-12-20T09:59:30;95.32;;;85.28;;
20298;SDS011;10308;42.688;23.256;2023-12-20T10:01:58;104.22;;;93.75;;
20298;SDS011;10308;42.688;23.256;2023-12-20T10:04:32;106.50;;;95.70;;
20298;SDS011;10308;42.688;23.256;2023-12-20T10:07:02;104.45;;;93.68;;
20298;SDS011;10308;42.688;23.256;2023-12-20T10:09:32;109.03;;;97.72;;
20298;SDS011;10308;42.688;23.256;2023-12-20T10:12:03;113.15;;;101.60;;
20298;SDS011;10308;42.688;23.256;2023-12-20T10:14:33;113.75;;;101.85;;
20298;SDS011;10308;42.688;23.256;2023-12-20T10:17:05;120.88;;;108.50;;
20298;SDS011;10308;42.688;23.256;2023-12-20T10:19:36;118.32;;;105.88;;
20298;SDS011;10308;42.688;23.256;2023-12-20T10:22:04;114.55;;;102.85;;
20298;SDS011;10308;42.688;23.256;2023-12-20T10:24:32;111.38;;;99.70;;
20298;SDS011;10308;42.688;23.256;2023-12-20T10:27:02;108.15;;;96.82;;
20298;SDS011;10308;42.688;23.256;2023-12-20T10:29:33;108.25;;;96.95;;
20298;SDS011;10308;42.688;23.256;2023-12-20T10:32:12;111.60;;;100.18;;
20298;SDS011;10308;42.688;23.256;2023-12-20T10:34:52;108.15;;;96.95;;
20298;SDS011;10308;42.688;23.256;2023-12-20T10:37:20;108.03;;;96.65;;
20298;SDS011;10308;42.688;23.256;2023-12-20T10:39:49;91.88;;;78.72;;
20298;SDS011;10308;42.688;23.256;2023-12-20T10:42:17;92.65;;;77.05;;
20298;SDS011;10308;42.688;23.256;2023-12-20T10:44:44;89.78;;;78.65;;
20298;SDS011;10308;42.688;23.256;2023-12-20T10:47:14;108.68;;;97.38;;
20298;SDS011;10308;42.688;23.256;2023-12-20T10:49:42;107.75;;;96.60;;
20298;SDS011;10308;42.688;23.256;2023-12-20T10:52:14;100.53;;;90.28;;
20298;SDS011;10308;42.688;23.256;2023-12-20T10:54:42;106.82;;;95.97;;
20298;SDS011;10308;42.688;23.256;2023-12-20T10:57:10;106.88;;;95.57;;
20298;SDS011;10308;42.688;23.256;2023-12-20T10:59:39;102.57;;;92.50;;
20298;SDS011;10308;42.688;23.256;2023-12-20T11:02:11;91.07;;;81.75;;
20298;SDS011;10308;42.688;23.256;2023-12-20T11:04:40;91.45;;;81.93;;
20298;SDS011;10308;42.688;23.256;2023-12-20T11:07:24;88.55;;;79.32;;
20298;SDS011;10308;42.688;23.256;2023-12-20T11:09:57;98.60;;;88.35;;
20298;SDS011;10308;42.688;23.256;2023-12-20T11:12:29;103.18;;;92.63;;
20298;SDS011;10308;42.688;23.256;2023-12-20T11:15:05;135.13;;;121.28;;
20298;SDS011;10308;42.688;23.256;2023-12-20T11:17:33;141.85;;;127.20;;
20298;SDS011;10308;42.688;23.256;2023-12-20T11:20:06;143.52;;;128.45;;
20298;SDS011;10308;42.688;23.256;2023-12-20T11:22:39;125.68;;;112.72;;
20298;SDS011;10308;42.688;23.256;2023-12-20T11:25:08;112.20;;;100.43;;
20298;SDS011;10308;42.688;23.256;2023-12-20T11:27:36;93.78;;;83.88;;
20298;SDS011;10308;42.688;23.256;2023-12-20T11:30:11;83.57;;;74.50;;
20298;SDS011;10308;42.688;23.256;2023-12-20T11:32:40;80.38;;;72.05;;
20298;SDS011;10308;42.688;23.256;2023-12-20T11:35:18;80.20;;;71.55;;
20298;SDS011;10308;42.688;23.256;2023-12-20T11:37:47;80.22;;;71.63;;
20298;SDS011;10308;42.688;23.256;2023-12-20T11:40:17;87.53;;;75.07;;
20298;SDS011;10308;42.688;23.256;2023-12-20T11:42:48;91.80;;;80.28;;
20298;SDS011;10308;42.688;23.256;2023-12-20T11:45:18;94.50;;;84.18;;
20298;SDS011;10308;42.688;23.256;2023-12-20T11:47:49;101.88;;;90.70;;
20298;SDS011;10308;42.688;23.256;2023-12-20T11:50:21;111.28;;;97.35;;
20298;SDS011;10308;42.688;23.256;2023-12-20T11:52:57;110.78;;;94.38;;
20298;SDS011;10308;42.688;23.256;2023-12-20T11:55:24;108.10;;;96.20;;
20298;SDS011;10308;42.688;23.256;2023-12-20T11:57:51;111.80;;;99.45;;
20298;SDS011;10308;42.688;23.256;2023-12-20T12:00:21;112.65;;;98.15;;
20298;SDS011;10308;42.688;23.256;2023-12-20T12:02:56;110.45;;;96.95;;
20298;SDS011;10308;42.688;23.256;2023-12-20T12:05:30;111.43;;;95.60;;
20298;SDS011;10308;42.688;23.256;2023-12-20T12:07:59;105.32;;;91.35;;
20298;SDS011;10308;42.688;23.256;2023-12-20T12:10:27;102.00;;;89.18;;
20298;SDS011;10308;42.688;23.256;2023-12-20T12:12:55;107.75;;;93.57;;
20298;SDS011;10308;42.688;23.256;2023-12-20T12:15:22;122.03;;;108.82;;
20298;SDS011;10308;42.688;23.256;2023-12-20T12:17:53;124.68;;;107.53;;
20298;SDS011;10308;42.688;23.256;2023-12-20T12:20:26;114.15;;;101.75;;
20298;SDS011;10308;42.688;23.256;2023-12-20T12:22:57;115.90;;;99.90;;
20298;SDS011;10308;42.688;23.256;2023-12-20T12:25:26;117.93;;;103.43;;
20298;SDS011;10308;42.688;23.256;2023-12-20T12:27:58;118.13;;;105.32;;
20298;SDS011;10308;42.688;23.256;2023-12-20T12:30:26;115.43;;;101.00;;
20298;SDS011;10308;42.688;23.256;2023-12-20T12:32:53;110.88;;;96.32;;
20298;SDS011;10308;42.688;23.256;2023-12-20T12:35:22;118.32;;;101.68;;
20298;SDS011;10308;42.688;23.256;2023-12-20T12:37:52;135.27;;;119.90;;
20298;SDS011;10308;42.688;23.256;2023-12-20T12:40:22;123.38;;;107.65;;
20298;SDS011;10308;42.688;23.256;2023-12-20T12:42:52;118.10;;;99.68;;
20298;SDS011;10308;42.688;23.256;2023-12-20T12:45:19;116.13;;;98.68;;
20298;SDS011;10308;42.688;23.256;2023-12-20T12:47:47;123.65;;;105.85;;
20298;SDS011;10308;42.688;23.256;2023-12-20T12:50:15;120.50;;;101.88;;
20298;SDS011;10308;42.688;23.256;2023-12-20T12:52:47;116.00;;;102.55;;
20298;SDS011;10308;42.688;23.256;2023-12-20T12:55:15;107.93;;;95.80;;
20298;SDS011;10308;42.688;23.256;2023-12-20T12:57:45;114.18;;;97.60;;
20298;SDS011;10308;42.688;23.256;2023-12-20T13:00:12;104.90;;;90.70;;
20298;SDS011;10308;42.688;23.256;2023-12-20T13:02:40;102.80;;;89.30;;
20298;SDS011;10308;42.688;23.256;2023-12-20T13:05:10;99.15;;;83.80;;
20298;SDS011;10308;42.688;23.256;2023-12-20T13:07:37;99.82;;;88.43;;
20298;SDS011;10308;42.688;23.256;2023-12-20T13:10:05;120.05;;;107.03;;
20298;SDS011;10308;42.688;23.256;2023-12-20T13:12:32;124.22;;;111.50;;
20298;SDS011;10308;42.688;23.256;2023-12-20T13:15:04;110.47;;;98.47;;
20298;SDS011;10308;42.688;23.256;2023-12-20T13:17:34;104.97;;;93.40;;
20298;SDS011;10308;42.688;23.256;2023-12-20T13:20:02;113.80;;;96.47;;
20298;SDS011;10308;42.688;23.256;2023-12-20T13:22:31;109.97;;;92.60;;
20298;SDS011;10308;42.688;23.256;2023-12-20T13:25:00;114.05;;;100.38;;
20298;SDS011;10308;42.688;23.256;2023-12-20T13:27:31;119.03;;;102.60;;
20298;SDS011;10308;42.688;23.256;2023-12-20T13:30:06;115.03;;;98.63;;
20298;SDS011;10308;42.688;23.256;2023-12-20T13:32:35;113.10;;;97.82;;
20298;SDS011;10308;42.688;23.256;2023-12-20T13:35:05;106.32;;;94.18;;
20298;SDS011;10308;42.688;23.256;2023-12-20T13:37:34;125.93;;;112.13;;
20298;SDS011;10308;42.688;23.256;2023-12-20T13:40:02;119.85;;;102.78;;
20298;SDS011;10308;42.688;23.256;2023-12-20T13:42:31;114.40;;;100.00;;
20298;SDS011;10308;42.688;23.256;2023-12-20T13:44:59;115.13;;;97.93;;
20298;SDS011;10308;42.688;23.256;2023-12-20T13:47:32;104.10;;;90.03;;
20298;SDS011;10308;42.688;23.256;2023-12-20T13:49:59;102.72;;;87.05;;
20298;SDS011;10308;42.688;23.256;2023-12-20T13:52:27;94.63;;;80.93;;
20298;SDS011;10308;42.688;23.256;2023-12-20T13:54:56;99.57;;;83.15;;
20298;SDS011;10308;42.688;23.256;2023-12-20T13:57:23;95.82;;;80.35;;
20298;SDS011;10308;42.688;23.256;2023-12-20T13:59:54;100.78;;;87.72;;
20298;SDS011;10308;42.688;23.256;2023-12-20T14:02:22;97.45;;;86.90;;
20298;SDS011;10308;42.688;23.256;2023-12-20T14:04:53;107.47;;;93.60;;
20298;SDS011;10308;42.688;23.256;2023-12-20T14:07:23;113.78;;;97.43;;
20298;SDS011;10308;42.688;23.256;2023-12-20T14:09:52;115.18;;;96.07;;
20298;SDS011;10308;42.688;23.256;2023-12-20T14:12:23;112.57;;;98.50;;
20298;SDS011;10308;42.688;23.256;2023-12-20T14:14:50;115.32;;;96.32;;